sensor_id;sensor_type;location;lat;lon;timestamp;P1;durP1;ratioP1;P2;durP2;ratioP2
53646;SDS011;39550;52.230;5.194;2024-02-21T00:00:01;9.18;;;4.32;;
53646;SDS011;39550;52.230;5.194;2024-02-21T00:02:26;8.63;;;4.10;;
53646;SDS011;39550;52.230;5.194;2024-02-21T00:04:51;10.43;;;3.92;;
53646;SDS011;39550;52.230;5.194;2024-02-21T00:07:17;9.75;;;4.47;;
53646;SDS011;39550;52.230;5.194;2024-02-21T00:09:42;11.43;;;4.88;;
53646;SDS011;39550;52.230;5.194;2024-02-21T00:12:08;11.73;;;4.10;;
53646;SDS011;39550;52.230;5.194;2024-02-21T00:14:33;9.55;;;4.82;;
53646;SDS011;39550;52.230;5.194;2024-02-21T00:16:58;10.10;;;4.50;;
53646;SDS011;39550;52.230;5.194;2024-02-21T00:19:24;12.90;;;4.43;;
53646;SDS011;39550;52.230;5.194;2024-02-21T00:21:49;11.50;;;4.22;;
53646;SDS011;39550;52.230;5.194;2024-02-21T00:24:14;10.30;;;4.32;;
53646;SDS011;39550;52.230;5.194;2024-02-21T00:26:39;11.05;;;4.28;;
53646;SDS011;39550;52.230;5.194;2024-02-21T00:29:05;11.23;;;4.80;;
53646;SDS011;39550;52.230;5.194;2024-02-21T00:31:30;11.30;;;4.18;;
53646;SDS011;39550;52.230;5.194;2024-02-21T00:33:56;11.68;;;4.55;;
53646;SDS011;39550;52.230;5.194;2024-02-21T00:36:22;8.63;;;4.38;;
53646;SDS011;39550;52.230;5.194;2024-02-21T00:38:48;8.50;;;3.95;;
53646;SDS011;39550;52.230;5.194;2024-02-21T00:41:13;11.35;;;4.47;;
53646;SDS011;39550;52.230;5.194;2024-02-21T00:43:38;13.07;;;5.93;;
53646;SDS011;39550;52.230;5.194;2024-02-21T00:46:05;9.32;;;3.95;;
53646;SDS011;39550;52.230;5.194;2024-02-21T00:48:31;10.27;;;5.45;;
53646;SDS011;39550;52.230;5.194;2024-02-21T00:50:56;12.20;;;4.07;;
53646;SDS011;39550;52.230;5.194;2024-02-21T00:53:21;11.43;;;4.75;;
53646;SDS011;39550;52.230;5.194;2024-02-21T00:55:46;8.88;;;4.00;;
53646;SDS011;39550;52.230;5.194;2024-02-21T00:58:12;11.00;;;4.47;;
53646;SDS011;39550;52.230;5.194;2024-02-21T01:00:37;8.38;;;4.53;;
53646;SDS011;39550;52.230;5.194;2024-02-21T01:03:02;8.65;;;4.38;;
53646;SDS011;39550;52.230;5.194;2024-02-21T01:05:28;9.88;;;3.97;;
53646;SDS011;39550;52.230;5.194;2024-02-21T01:07:54;10.10;;;4.80;;
53646;SDS011;39550;52.230;5.194;2024-02-21T01:10:19;11.70;;;4.40;;
53646;SDS011;39550;52.230;5.194;2024-02-21T01:12:44;10.13;;;5.10;;
53646;SDS011;39550;52.230;5.194;2024-02-21T01:15:10;12.55;;;4.10;;
53646;SDS011;39550;52.230;5.194;2024-02-21T01:17:36;10.43;;;4.93;;
53646;SDS011;39550;52.230;5.194;2024-02-21T01:20:02;8.88;;;5.07;;
53646;SDS011;39550;52.230;5.194;2024-02-21T01:22:30;11.18;;;4.28;;
53646;SDS011;39550;52.230;5.194;2024-02-21T01:24:55;7.78;;;4.20;;
53646;SDS011;39550;52.230;5.194;2024-02-21T01:27:21;7.55;;;4.45;;
53646;SDS011;39550;52.230;5.194;2024-02-21T01:29:46;9.25;;;4.32;;
53646;SDS011;39550;52.230;5.194;2024-02-21T01:32:12;11.10;;;5.20;;
53646;SDS011;39550;52.230;5.194;2024-02-21T01:34:38;9.07;;;3.90;;
53646;SDS011;39550;52.230;5.194;2024-02-21T01:37:03;11.98;;;5.00;;
53646;SDS011;39550;52.230;5.194;2024-02-21T01:39:30;10.43;;;4.00;;
53646;SDS011;39550;52.230;5.194;2024-02-21T01:41:55;12.68;;;4.40;;
53646;SDS011;39550;52.230;5.194;2024-02-21T01:44:20;16.52;;;4.93;;
53646;SDS011;39550;52.230;5.194;2024-02-21T01:46:46;10.50;;;5.10;;
53646;SDS011;39550;52.230;5.194;2024-02-21T01:49:11;10.02;;;4.28;;
53646;SDS011;39550;52.230;5.194;2024-02-21T01:51:36;10.88;;;4.78;;
53646;SDS011;39550;52.230;5.194;2024-02-21T01:54:02;10.80;;;4.30;;
53646;SDS011;39550;52.230;5.194;2024-02-21T01:56:27;19.85;;;5.28;;
53646;SDS011;39550;52.230;5.194;2024-02-21T01:58:53;10.52;;;3.95;;
53646;SDS011;39550;52.230;5.194;2024-02-21T02:01:20;9.10;;;4.35;;
53646;SDS011;39550;52.230;5.194;2024-02-21T02:03:46;9.55;;;4.45;;
53646;SDS011;39550;52.230;5.194;2024-02-21T02:06:12;11.05;;;3.97;;
53646;SDS011;39550;52.230;5.194;2024-02-21T02:08:37;9.55;;;4.25;;
53646;SDS011;39550;52.230;5.194;2024-02-21T02:11:02;11.55;;;4.03;;
53646;SDS011;39550;52.230;5.194;2024-02-21T02:13:28;12.20;;;4.53;;
53646;SDS011;39550;52.230;5.194;2024-02-21T02:15:53;14.85;;;4.40;;
53646;SDS011;39550;52.230;5.194;2024-02-21T02:18:19;9.82;;;4.07;;
53646;SDS011;39550;52.230;5.194;2024-02-21T02:20:45;10.50;;;4.68;;
53646;SDS011;39550;52.230;5.194;2024-02-21T02:23:33;14.10;;;4.20;;
53646;SDS011;39550;52.230;5.194;2024-02-21T02:25:58;9.45;;;4.25;;
53646;SDS011;39550;52.230;5.194;2024-02-21T02:28:24;8.63;;;4.10;;
53646;SDS011;39550;52.230;5.194;2024-02-21T02:30:49;10.18;;;4.13;;
53646;SDS011;39550;52.230;5.194;2024-02-21T02:33:15;8.38;;;4.20;;
53646;SDS011;39550;52.230;5.194;2024-02-21T02:35:44;13.82;;;4.68;;
53646;SDS011;39550;52.230;5.194;2024-02-21T02:38:09;13.00;;;4.20;;
53646;SDS011;39550;52.230;5.194;2024-02-21T02:40:37;12.35;;;5.10;;
53646;SDS011;39550;52.230;5.194;2024-02-21T02:43:03;10.98;;;4.25;;
53646;SDS011;39550;52.230;5.194;2024-02-21T02:45:29;11.38;;;4.63;;
53646;SDS011;39550;52.230;5.194;2024-02-21T02:47:55;11.25;;;4.35;;
53646;SDS011;39550;52.230;5.194;2024-02-21T02:50:22;11.88;;;3.92;;
53646;SDS011;39550;52.230;5.194;2024-02-21T02:52:47;10.35;;;3.88;;
53646;SDS011;39550;52.230;5.194;2024-02-21T02:55:13;12.05;;;4.35;;
53646;SDS011;39550;52.230;5.194;2024-02-21T02:57:38;11.75;;;4.55;;
53646;SDS011;39550;52.230;5.194;2024-02-21T03:00:04;16.60;;;4.57;;
53646;SDS011;39550;52.230;5.194;2024-02-21T03:02:31;8.45;;;4.97;;
53646;SDS011;39550;52.230;5.194;2024-02-21T03:04:57;12.75;;;4.00;;
53646;SDS011;39550;52.230;5.194;2024-02-21T03:07:23;9.52;;;4.15;;
53646;SDS011;39550;52.230;5.194;2024-02-21T03:09:49;9.90;;;4.15;;
53646;SDS011;39550;52.230;5.194;2024-02-21T03:12:15;7.82;;;4.25;;
53646;SDS011;39550;52.230;5.194;2024-02-21T03:14:44;11.18;;;3.97;;
53646;SDS011;39550;52.230;5.194;2024-02-21T03:17:09;13.20;;;4.90;;
53646;SDS011;39550;52.230;5.194;2024-02-21T03:19:34;12.55;;;4.72;;
53646;SDS011;39550;52.230;5.194;2024-02-21T03:22:00;12.38;;;6.03;;
53646;SDS011;39550;52.230;5.194;2024-02-21T03:24:25;16.80;;;4.57;;
53646;SDS011;39550;52.230;5.194;2024-02-21T03:26:50;13.38;;;4.57;;
53646;SDS011;39550;52.230;5.194;2024-02-21T03:29:16;11.38;;;4.22;;
53646;SDS011;39550;52.230;5.194;2024-02-21T03:31:41;11.35;;;4.35;;
53646;SDS011;39550;52.230;5.194;2024-02-21T03:34:10;10.25;;;3.88;;
53646;SDS011;39550;52.230;5.194;2024-02-21T03:36:36;9.40;;;3.80;;
53646;SDS011;39550;52.230;5.194;2024-02-21T03:39:01;13.65;;;4.60;;
53646;SDS011;39550;52.230;5.194;2024-02-21T03:41:27;9.77;;;3.72;;
53646;SDS011;39550;52.230;5.194;2024-02-21T03:43:52;12.20;;;4.10;;
53646;SDS011;39550;52.230;5.194;2024-02-21T03:46:17;7.55;;;3.72;;
53646;SDS011;39550;52.230;5.194;2024-02-21T03:48:43;9.00;;;4.28;;
53646;SDS011;39550;52.230;5.194;2024-02-21T03:51:08;9.15;;;4.53;;
53646;SDS011;39550;52.230;5.194;2024-02-21T03:53:33;11.88;;;5.35;;
53646;SDS011;39550;52.230;5.194;2024-02-21T03:56:02;15.23;;;4.78;;
53646;SDS011;39550;52.230;5.194;2024-02-21T03:58:29;7.82;;;4.68;;
53646;SDS011;39550;52.230;5.194;2024-02-21T04:01:00;7.95;;;4.10;;
53646;SDS011;39550;52.230;5.194;2024-02-21T04:03:26;8.93;;;4.13;;
53646;SDS011;39550;52.230;5.194;2024-02-21T04:05:51;9.73;;;4.05;;
53646;SDS011;39550;52.230;5.194;2024-02-21T04:08:17;11.18;;;3.90;;
53646;SDS011;39550;52.230;5.194;2024-02-21T04:10:42;11.10;;;4.03;;
53646;SDS011;39550;52.230;5.194;2024-02-21T04:13:07;11.10;;;4.88;;
53646;SDS011;39550;52.230;5.194;2024-02-21T04:15:33;9.23;;;4.63;;
53646;SDS011;39550;52.230;5.194;2024-02-21T04:17:58;9.25;;;4.25;;
53646;SDS011;39550;52.230;5.194;2024-02-21T04:20:24;11.10;;;5.18;;
53646;SDS011;39550;52.230;5.194;2024-02-21T04:22:49;8.75;;;3.97;;
53646;SDS011;39550;52.230;5.194;2024-02-21T04:25:15;11.75;;;4.07;;
53646;SDS011;39550;52.230;5.194;2024-02-21T04:27:40;8.00;;;3.92;;
53646;SDS011;39550;52.230;5.194;2024-02-21T04:30:06;11.25;;;5.30;;
53646;SDS011;39550;52.230;5.194;2024-02-21T04:32:32;13.88;;;5.25;;
53646;SDS011;39550;52.230;5.194;2024-02-21T04:34:58;9.80;;;4.28;;
53646;SDS011;39550;52.230;5.194;2024-02-21T04:37:23;11.30;;;4.70;;
53646;SDS011;39550;52.230;5.194;2024-02-21T04:39:49;11.68;;;4.40;;
53646;SDS011;39550;52.230;5.194;2024-02-21T04:42:15;8.98;;;4.57;;
53646;SDS011;39550;52.230;5.194;2024-02-21T04:44:40;10.45;;;4.07;;
53646;SDS011;39550;52.230;5.194;2024-02-21T04:47:06;9.95;;;4.60;;
53646;SDS011;39550;52.230;5.194;2024-02-21T04:49:35;7.75;;;4.40;;
53646;SDS011;39550;52.230;5.194;2024-02-21T04:52:00;7.10;;;4.70;;
53646;SDS011;39550;52.230;5.194;2024-02-21T04:54:25;12.55;;;4.25;;
53646;SDS011;39550;52.230;5.194;2024-02-21T04:56:51;8.55;;;4.53;;
53646;SDS011;39550;52.230;5.194;2024-02-21T04:59:16;15.77;;;5.18;;
53646;SDS011;39550;52.230;5.194;2024-02-21T05:01:42;11.52;;;5.13;;
53646;SDS011;39550;52.230;5.194;2024-02-21T05:04:07;7.55;;;4.55;;
53646;SDS011;39550;52.230;5.194;2024-02-21T05:06:37;10.85;;;5.00;;
53646;SDS011;39550;52.230;5.194;2024-02-21T05:09:06;7.35;;;4.35;;
53646;SDS011;39550;52.230;5.194;2024-02-21T05:11:33;10.15;;;5.13;;
53646;SDS011;39550;52.230;5.194;2024-02-21T05:13:59;9.82;;;4.80;;
53646;SDS011;39550;52.230;5.194;2024-02-21T05:16:24;16.02;;;6.57;;
53646;SDS011;39550;52.230;5.194;2024-02-21T05:18:49;11.30;;;4.72;;
53646;SDS011;39550;52.230;5.194;2024-02-21T05:21:14;12.40;;;5.75;;
53646;SDS011;39550;52.230;5.194;2024-02-21T05:23:40;9.60;;;4.28;;
53646;SDS011;39550;52.230;5.194;2024-02-21T05:26:05;11.77;;;5.32;;
53646;SDS011;39550;52.230;5.194;2024-02-21T05:28:31;12.55;;;5.07;;
53646;SDS011;39550;52.230;5.194;2024-02-21T05:30:56;9.00;;;4.80;;
53646;SDS011;39550;52.230;5.194;2024-02-21T05:33:22;10.88;;;5.22;;
53646;SDS011;39550;52.230;5.194;2024-02-21T05:35:47;7.93;;;4.95;;
53646;SDS011;39550;52.230;5.194;2024-02-21T05:38:15;11.23;;;5.38;;
53646;SDS011;39550;52.230;5.194;2024-02-21T05:40:41;11.23;;;5.07;;
53646;SDS011;39550;52.230;5.194;2024-02-21T05:43:07;10.48;;;5.18;;
53646;SDS011;39550;52.230;5.194;2024-02-21T05:45:33;13.07;;;5.30;;
53646;SDS011;39550;52.230;5.194;2024-02-21T05:47:58;13.32;;;5.60;;
53646;SDS011;39550;52.230;5.194;2024-02-21T05:50:24;10.63;;;5.35;;
53646;SDS011;39550;52.230;5.194;2024-02-21T05:52:53;9.95;;;5.00;;
53646;SDS011;39550;52.230;5.194;2024-02-21T05:55:19;11.07;;;5.57;;
53646;SDS011;39550;52.230;5.194;2024-02-21T05:57:44;10.00;;;5.32;;
53646;SDS011;39550;52.230;5.194;2024-02-21T06:00:10;12.18;;;5.97;;
53646;SDS011;39550;52.230;5.194;2024-02-21T06:02:35;10.10;;;5.88;;
53646;SDS011;39550;52.230;5.194;2024-02-21T06:05:00;10.25;;;5.50;;
53646;SDS011;39550;52.230;5.194;2024-02-21T06:07:26;10.40;;;5.55;;
53646;SDS011;39550;52.230;5.194;2024-02-21T06:09:51;10.45;;;5.85;;
53646;SDS011;39550;52.230;5.194;2024-02-21T06:12:16;10.73;;;6.03;;
53646;SDS011;39550;52.230;5.194;2024-02-21T06:14:42;16.30;;;6.55;;
53646;SDS011;39550;52.230;5.194;2024-02-21T06:17:07;13.25;;;6.43;;
53646;SDS011;39550;52.230;5.194;2024-02-21T06:19:32;12.05;;;6.75;;
53646;SDS011;39550;52.230;5.194;2024-02-21T06:21:57;11.15;;;6.47;;
53646;SDS011;39550;52.230;5.194;2024-02-21T06:24:23;10.48;;;5.93;;
53646;SDS011;39550;52.230;5.194;2024-02-21T06:26:48;11.23;;;5.47;;
53646;SDS011;39550;52.230;5.194;2024-02-21T06:29:13;16.45;;;6.18;;
53646;SDS011;39550;52.230;5.194;2024-02-21T06:31:39;12.02;;;6.15;;
53646;SDS011;39550;52.230;5.194;2024-02-21T06:34:05;13.82;;;6.47;;
53646;SDS011;39550;52.230;5.194;2024-02-21T06:36:31;13.80;;;6.45;;
53646;SDS011;39550;52.230;5.194;2024-02-21T06:38:56;11.52;;;6.60;;
53646;SDS011;39550;52.230;5.194;2024-02-21T06:41:21;11.30;;;6.20;;
53646;SDS011;39550;52.230;5.194;2024-02-21T06:43:47;11.13;;;6.32;;
53646;SDS011;39550;52.230;5.194;2024-02-21T06:46:22;14.35;;;7.55;;
53646;SDS011;39550;52.230;5.194;2024-02-21T06:48:51;15.27;;;7.70;;
53646;SDS011;39550;52.230;5.194;2024-02-21T06:51:16;13.02;;;6.07;;
53646;SDS011;39550;52.230;5.194;2024-02-21T06:53:42;12.07;;;6.57;;
53646;SDS011;39550;52.230;5.194;2024-02-21T06:56:08;11.05;;;5.97;;
53646;SDS011;39550;52.230;5.194;2024-02-21T06:58:34;10.20;;;6.18;;
53646;SDS011;39550;52.230;5.194;2024-02-21T07:01:00;12.98;;;6.47;;
53646;SDS011;39550;52.230;5.194;2024-02-21T07:03:25;14.25;;;7.28;;
53646;SDS011;39550;52.230;5.194;2024-02-21T07:05:51;11.45;;;6.60;;
53646;SDS011;39550;52.230;5.194;2024-02-21T07:08:16;10.43;;;6.55;;
53646;SDS011;39550;52.230;5.194;2024-02-21T07:10:41;12.07;;;6.63;;
53646;SDS011;39550;52.230;5.194;2024-02-21T07:13:06;12.27;;;6.75;;
53646;SDS011;39550;52.230;5.194;2024-02-21T07:15:32;11.65;;;6.85;;
53646;SDS011;39550;52.230;5.194;2024-02-21T07:17:58;14.10;;;6.70;;
53646;SDS011;39550;52.230;5.194;2024-02-21T07:20:23;18.50;;;7.78;;
53646;SDS011;39550;52.230;5.194;2024-02-21T07:22:49;12.75;;;7.28;;
53646;SDS011;39550;52.230;5.194;2024-02-21T07:25:14;13.38;;;7.85;;
53646;SDS011;39550;52.230;5.194;2024-02-21T07:27:39;14.23;;;7.65;;
53646;SDS011;39550;52.230;5.194;2024-02-21T07:30:05;14.45;;;7.35;;
53646;SDS011;39550;52.230;5.194;2024-02-21T07:32:31;13.73;;;7.78;;
53646;SDS011;39550;52.230;5.194;2024-02-21T07:34:56;15.55;;;7.60;;
53646;SDS011;39550;52.230;5.194;2024-02-21T07:37:22;13.02;;;7.45;;
53646;SDS011;39550;52.230;5.194;2024-02-21T07:39:47;12.73;;;7.63;;
53646;SDS011;39550;52.230;5.194;2024-02-21T07:42:12;18.08;;;8.50;;
53646;SDS011;39550;52.230;5.194;2024-02-21T07:44:37;17.52;;;8.32;;
53646;SDS011;39550;52.230;5.194;2024-02-21T07:47:03;13.85;;;8.45;;
53646;SDS011;39550;52.230;5.194;2024-02-21T07:49:28;19.65;;;8.80;;
53646;SDS011;39550;52.230;5.194;2024-02-21T07:51:54;15.07;;;7.15;;
53646;SDS011;39550;52.230;5.194;2024-02-21T07:54:19;16.48;;;8.15;;
53646;SDS011;39550;52.230;5.194;2024-02-21T07:56:44;14.95;;;8.15;;
53646;SDS011;39550;52.230;5.194;2024-02-21T07:59:09;16.08;;;7.82;;
53646;SDS011;39550;52.230;5.194;2024-02-21T08:01:35;15.52;;;8.38;;
53646;SDS011;39550;52.230;5.194;2024-02-21T08:04:00;15.75;;;7.47;;
53646;SDS011;39550;52.230;5.194;2024-02-21T08:06:26;13.27;;;8.00;;
53646;SDS011;39550;52.230;5.194;2024-02-21T08:08:51;16.08;;;8.15;;
53646;SDS011;39550;52.230;5.194;2024-02-21T08:11:16;20.05;;;9.02;;
53646;SDS011;39550;52.230;5.194;2024-02-21T08:13:41;18.75;;;8.77;;
53646;SDS011;39550;52.230;5.194;2024-02-21T08:16:07;14.15;;;8.40;;
53646;SDS011;39550;52.230;5.194;2024-02-21T08:18:32;14.20;;;7.20;;
53646;SDS011;39550;52.230;5.194;2024-02-21T08:21:01;15.45;;;8.60;;
53646;SDS011;39550;52.230;5.194;2024-02-21T08:23:28;16.35;;;8.68;;
53646;SDS011;39550;52.230;5.194;2024-02-21T08:25:53;16.23;;;7.97;;
53646;SDS011;39550;52.230;5.194;2024-02-21T08:28:18;14.50;;;8.45;;
53646;SDS011;39550;52.230;5.194;2024-02-21T08:30:43;16.50;;;7.65;;
53646;SDS011;39550;52.230;5.194;2024-02-21T08:33:15;14.88;;;8.20;;
53646;SDS011;39550;52.230;5.194;2024-02-21T08:35:41;14.57;;;8.05;;
53646;SDS011;39550;52.230;5.194;2024-02-21T08:38:07;14.93;;;8.93;;
53646;SDS011;39550;52.230;5.194;2024-02-21T08:40:34;17.23;;;8.20;;
53646;SDS011;39550;52.230;5.194;2024-02-21T08:43:01;16.85;;;9.05;;
53646;SDS011;39550;52.230;5.194;2024-02-21T08:45:27;16.90;;;8.75;;
53646;SDS011;39550;52.230;5.194;2024-02-21T08:47:52;15.95;;;8.77;;
53646;SDS011;39550;52.230;5.194;2024-02-21T08:50:17;17.40;;;9.35;;
53646;SDS011;39550;52.230;5.194;2024-02-21T08:52:43;16.70;;;8.80;;
53646;SDS011;39550;52.230;5.194;2024-02-21T08:55:08;17.92;;;8.35;;
53646;SDS011;39550;52.230;5.194;2024-02-21T08:57:33;16.20;;;9.18;;
53646;SDS011;39550;52.230;5.194;2024-02-21T09:00:03;16.45;;;9.02;;
53646;SDS011;39550;52.230;5.194;2024-02-21T09:02:34;16.33;;;8.55;;
53646;SDS011;39550;52.230;5.194;2024-02-21T09:05:00;16.98;;;8.38;;
53646;SDS011;39550;52.230;5.194;2024-02-21T09:07:25;15.73;;;9.27;;
53646;SDS011;39550;52.230;5.194;2024-02-21T09:09:50;18.67;;;9.75;;
53646;SDS011;39550;52.230;5.194;2024-02-21T09:12:15;18.77;;;8.45;;
53646;SDS011;39550;52.230;5.194;2024-02-21T09:14:41;19.13;;;10.00;;
53646;SDS011;39550;52.230;5.194;2024-02-21T09:17:06;15.98;;;8.60;;
53646;SDS011;39550;52.230;5.194;2024-02-21T09:19:32;17.75;;;9.48;;
53646;SDS011;39550;52.230;5.194;2024-02-21T09:21:58;17.33;;;9.38;;
53646;SDS011;39550;52.230;5.194;2024-02-21T09:24:23;16.70;;;9.93;;
53646;SDS011;39550;52.230;5.194;2024-02-21T09:26:48;19.48;;;10.18;;
53646;SDS011;39550;52.230;5.194;2024-02-21T09:29:14;17.05;;;9.20;;
53646;SDS011;39550;52.230;5.194;2024-02-21T09:31:41;18.13;;;10.43;;
53646;SDS011;39550;52.230;5.194;2024-02-21T09:34:07;17.92;;;9.93;;
53646;SDS011;39550;52.230;5.194;2024-02-21T09:36:32;20.02;;;10.52;;
53646;SDS011;39550;52.230;5.194;2024-02-21T09:38:57;19.40;;;10.27;;
53646;SDS011;39550;52.230;5.194;2024-02-21T09:43:54;19.75;;;10.05;;
53646;SDS011;39550;52.230;5.194;2024-02-21T09:46:21;20.65;;;9.93;;
53646;SDS011;39550;52.230;5.194;2024-02-21T09:49:12;17.25;;;9.60;;
53646;SDS011;39550;52.230;5.194;2024-02-21T09:51:47;11.75;;;7.20;;
53646;SDS011;39550;52.230;5.194;2024-02-21T09:54:14;18.17;;;9.60;;
53646;SDS011;39550;52.230;5.194;2024-02-21T09:56:40;24.33;;;10.80;;
53646;SDS011;39550;52.230;5.194;2024-02-21T09:59:05;17.98;;;9.57;;
53646;SDS011;39550;52.230;5.194;2024-02-21T10:01:32;20.10;;;10.32;;
53646;SDS011;39550;52.230;5.194;2024-02-21T10:03:57;18.55;;;10.38;;
53646;SDS011;39550;52.230;5.194;2024-02-21T10:06:23;21.38;;;11.57;;
53646;SDS011;39550;52.230;5.194;2024-02-21T10:08:55;18.33;;;10.38;;
53646;SDS011;39550;52.230;5.194;2024-02-21T10:11:23;18.70;;;10.38;;
53646;SDS011;39550;52.230;5.194;2024-02-21T10:13:50;17.80;;;9.23;;
53646;SDS011;39550;52.230;5.194;2024-02-21T10:16:15;20.17;;;10.63;;
53646;SDS011;39550;52.230;5.194;2024-02-21T10:18:41;17.60;;;9.82;;
53646;SDS011;39550;52.230;5.194;2024-02-21T10:21:06;18.77;;;9.68;;
53646;SDS011;39550;52.230;5.194;2024-02-21T10:23:46;16.27;;;9.95;;
53646;SDS011;39550;52.230;5.194;2024-02-21T10:26:15;15.57;;;9.05;;
53646;SDS011;39550;52.230;5.194;2024-02-21T10:28:42;19.13;;;9.98;;
53646;SDS011;39550;52.230;5.194;2024-02-21T10:31:10;16.63;;;9.80;;
53646;SDS011;39550;52.230;5.194;2024-02-21T10:33:36;15.98;;;8.50;;
53646;SDS011;39550;52.230;5.194;2024-02-21T10:36:09;17.30;;;9.73;;
53646;SDS011;39550;52.230;5.194;2024-02-21T10:38:36;20.00;;;9.65;;
53646;SDS011;39550;52.230;5.194;2024-02-21T10:41:02;16.88;;;8.70;;
53646;SDS011;39550;52.230;5.194;2024-02-21T10:43:30;16.77;;;9.48;;
53646;SDS011;39550;52.230;5.194;2024-02-21T10:46:02;14.75;;;8.68;;
53646;SDS011;39550;52.230;5.194;2024-02-21T10:48:33;16.20;;;10.45;;
53646;SDS011;39550;52.230;5.194;2024-02-21T10:51:16;16.92;;;8.90;;
53646;SDS011;39550;52.230;5.194;2024-02-21T10:56:29;17.20;;;8.23;;
53646;SDS011;39550;52.230;5.194;2024-02-21T10:59:02;14.93;;;8.80;;
53646;SDS011;39550;52.230;5.194;2024-02-21T11:01:29;17.27;;;8.75;;
53646;SDS011;39550;52.230;5.194;2024-02-21T11:03:57;16.33;;;9.40;;
53646;SDS011;39550;52.230;5.194;2024-02-21T11:06:24;14.75;;;7.93;;
53646;SDS011;39550;52.230;5.194;2024-02-21T11:08:59;16.88;;;8.65;;
53646;SDS011;39550;52.230;5.194;2024-02-21T11:11:26;16.80;;;9.25;;
53646;SDS011;39550;52.230;5.194;2024-02-21T11:13:51;13.60;;;8.32;;
53646;SDS011;39550;52.230;5.194;2024-02-21T11:16:22;14.65;;;9.05;;
53646;SDS011;39550;52.230;5.194;2024-02-21T11:18:48;15.15;;;8.13;;
53646;SDS011;39550;52.230;5.194;2024-02-21T11:21:14;13.32;;;8.13;;
53646;SDS011;39550;52.230;5.194;2024-02-21T11:23:40;16.25;;;9.55;;
53646;SDS011;39550;52.230;5.194;2024-02-21T11:26:08;14.20;;;8.88;;
53646;SDS011;39550;52.230;5.194;2024-02-21T11:28:35;18.67;;;8.27;;
53646;SDS011;39550;52.230;5.194;2024-02-21T11:31:09;14.90;;;8.77;;
53646;SDS011;39550;52.230;5.194;2024-02-21T11:33:39;12.50;;;7.72;;
53646;SDS011;39550;52.230;5.194;2024-02-21T11:36:04;16.10;;;8.48;;
53646;SDS011;39550;52.230;5.194;2024-02-21T11:38:30;12.80;;;8.05;;
53646;SDS011;39550;52.230;5.194;2024-02-21T11:40:55;14.73;;;8.65;;
53646;SDS011;39550;52.230;5.194;2024-02-21T11:43:20;14.57;;;7.88;;
53646;SDS011;39550;52.230;5.194;2024-02-21T11:45:46;14.30;;;8.13;;
53646;SDS011;39550;52.230;5.194;2024-02-21T11:48:11;14.73;;;8.20;;
53646;SDS011;39550;52.230;5.194;2024-02-21T11:50:36;12.23;;;8.10;;
53646;SDS011;39550;52.230;5.194;2024-02-21T11:53:04;13.32;;;8.27;;
53646;SDS011;39550;52.230;5.194;2024-02-21T11:55:29;14.18;;;8.38;;
53646;SDS011;39550;52.230;5.194;2024-02-21T11:57:54;14.05;;;9.90;;
53646;SDS011;39550;52.230;5.194;2024-02-21T12:00:20;12.27;;;7.65;;
53646;SDS011;39550;52.230;5.194;2024-02-21T12:02:45;15.30;;;8.27;;
53646;SDS011;39550;52.230;5.194;2024-02-21T12:05:11;13.80;;;8.00;;
53646;SDS011;39550;52.230;5.194;2024-02-21T12:07:37;14.82;;;7.68;;
53646;SDS011;39550;52.230;5.194;2024-02-21T12:10:07;14.15;;;7.15;;
53646;SDS011;39550;52.230;5.194;2024-02-21T12:12:35;15.13;;;7.57;;
53646;SDS011;39550;52.230;5.194;2024-02-21T12:15:02;13.95;;;8.10;;
53646;SDS011;39550;52.230;5.194;2024-02-21T12:17:29;13.13;;;8.00;;
53646;SDS011;39550;52.230;5.194;2024-02-21T12:19:55;14.50;;;7.90;;
53646;SDS011;39550;52.230;5.194;2024-02-21T12:22:21;12.48;;;8.00;;
53646;SDS011;39550;52.230;5.194;2024-02-21T12:24:47;12.95;;;7.35;;
53646;SDS011;39550;52.230;5.194;2024-02-21T12:27:13;13.23;;;7.68;;
53646;SDS011;39550;52.230;5.194;2024-02-21T12:29:38;13.98;;;8.13;;
53646;SDS011;39550;52.230;5.194;2024-02-21T12:32:04;13.43;;;8.15;;
53646;SDS011;39550;52.230;5.194;2024-02-21T12:34:29;15.43;;;8.02;;
53646;SDS011;39550;52.230;5.194;2024-02-21T12:36:58;12.55;;;7.55;;
53646;SDS011;39550;52.230;5.194;2024-02-21T12:39:23;13.40;;;7.65;;
53646;SDS011;39550;52.230;5.194;2024-02-21T12:41:49;16.25;;;8.70;;
53646;SDS011;39550;52.230;5.194;2024-02-21T12:44:14;12.73;;;8.32;;
53646;SDS011;39550;52.230;5.194;2024-02-21T12:46:41;12.48;;;7.18;;
53646;SDS011;39550;52.230;5.194;2024-02-21T12:49:06;16.10;;;8.38;;
53646;SDS011;39550;52.230;5.194;2024-02-21T12:51:34;12.98;;;7.53;;
53646;SDS011;39550;52.230;5.194;2024-02-21T12:54:00;13.85;;;8.30;;
53646;SDS011;39550;52.230;5.194;2024-02-21T12:56:26;12.23;;;7.57;;
53646;SDS011;39550;52.230;5.194;2024-02-21T12:58:52;12.88;;;8.57;;
53646;SDS011;39550;52.230;5.194;2024-02-21T13:01:17;25.60;;;8.65;;
53646;SDS011;39550;52.230;5.194;2024-02-21T13:03:43;12.52;;;7.00;;
53646;SDS011;39550;52.230;5.194;2024-02-21T13:06:08;14.48;;;7.95;;
53646;SDS011;39550;52.230;5.194;2024-02-21T13:08:35;13.80;;;8.10;;
53646;SDS011;39550;52.230;5.194;2024-02-21T13:11:01;11.80;;;7.63;;
53646;SDS011;39550;52.230;5.194;2024-02-21T13:13:26;13.00;;;7.32;;
53646;SDS011;39550;52.230;5.194;2024-02-21T13:15:51;14.68;;;8.00;;
53646;SDS011;39550;52.230;5.194;2024-02-21T13:18:17;15.27;;;8.73;;
53646;SDS011;39550;52.230;5.194;2024-02-21T13:20:42;12.52;;;7.95;;
53646;SDS011;39550;52.230;5.194;2024-02-21T13:23:07;12.68;;;7.38;;
53646;SDS011;39550;52.230;5.194;2024-02-21T13:25:33;13.38;;;8.68;;
53646;SDS011;39550;52.230;5.194;2024-02-21T13:27:58;14.20;;;8.32;;
53646;SDS011;39550;52.230;5.194;2024-02-21T13:30:23;12.38;;;7.43;;
53646;SDS011;39550;52.230;5.194;2024-02-21T13:32:50;14.60;;;7.97;;
53646;SDS011;39550;52.230;5.194;2024-02-21T13:35:16;15.68;;;8.75;;
53646;SDS011;39550;52.230;5.194;2024-02-21T13:37:41;14.93;;;8.10;;
53646;SDS011;39550;52.230;5.194;2024-02-21T13:40:07;13.07;;;8.18;;
53646;SDS011;39550;52.230;5.194;2024-02-21T13:42:39;12.77;;;7.10;;
53646;SDS011;39550;52.230;5.194;2024-02-21T13:45:05;12.70;;;8.15;;
53646;SDS011;39550;52.230;5.194;2024-02-21T13:47:31;12.25;;;7.20;;
53646;SDS011;39550;52.230;5.194;2024-02-21T13:49:57;11.75;;;7.50;;
53646;SDS011;39550;52.230;5.194;2024-02-21T13:52:23;13.40;;;7.60;;
53646;SDS011;39550;52.230;5.194;2024-02-21T13:54:51;13.75;;;7.53;;
53646;SDS011;39550;52.230;5.194;2024-02-21T13:57:16;13.07;;;8.30;;
53646;SDS011;39550;52.230;5.194;2024-02-21T13:59:42;13.68;;;8.38;;
53646;SDS011;39550;52.230;5.194;2024-02-21T14:02:07;13.30;;;7.60;;
53646;SDS011;39550;52.230;5.194;2024-02-21T14:04:33;13.52;;;7.75;;
53646;SDS011;39550;52.230;5.194;2024-02-21T14:06:59;11.73;;;7.53;;
53646;SDS011;39550;52.230;5.194;2024-02-21T14:09:24;13.45;;;7.85;;
53646;SDS011;39550;52.230;5.194;2024-02-21T14:11:49;12.13;;;7.70;;
53646;SDS011;39550;52.230;5.194;2024-02-21T14:14:15;12.27;;;8.02;;
53646;SDS011;39550;52.230;5.194;2024-02-21T14:16:40;11.38;;;7.50;;
53646;SDS011;39550;52.230;5.194;2024-02-21T14:19:06;12.90;;;8.00;;
53646;SDS011;39550;52.230;5.194;2024-02-21T14:21:33;11.98;;;7.72;;
53646;SDS011;39550;52.230;5.194;2024-02-21T14:23:58;12.25;;;7.70;;
53646;SDS011;39550;52.230;5.194;2024-02-21T14:26:26;11.38;;;7.25;;
53646;SDS011;39550;52.230;5.194;2024-02-21T14:28:52;12.13;;;7.32;;
53646;SDS011;39550;52.230;5.194;2024-02-21T14:31:17;14.07;;;8.70;;
53646;SDS011;39550;52.230;5.194;2024-02-21T14:33:42;12.38;;;8.20;;